Time;durP1;ratioP1;P1;durP2;ratioP2;P2;SDS_P1;SDS_P2;PMS_P1;PMS_P2;Temp;Humidity;BMP_temperature;BMP_pressure;BME280_temperature;BME280_humidity;BME280_pressure;Samples;Min_cycle;Max_cycle;Signal;HPM_P1;HPM_P2
2023/09/16 00:02:06;;;;;;;;;7.67;6.33;;;;;29.21;39.31;100970.03;5037392;28;45392;-74
2023/09/16 00:04:31;;;;;;;;;5.00;5.00;;;;;29.21;38.65;100959.31;5037218;28;45380;-74
2023/09/16 00:06:57;;;;;;;;;6.00;6.00;;;;;29.13;39.25;100960.44;5037196;28;45305;-74
2023/09/16 00:09:23;;;;;;;;;6.33;6.33;;;;;29.24;39.15;100970.41;5035850;28;46377;-74
2023/09/16 00:11:49;;;;;;;;;8.00;7.00;;;;;29.22;39.42;100977.03;5036879;28;45492;-74
2023/09/16 00:14:18;;;;;;;;;6.33;6.00;;;;;28.90;39.54;100927.13;5037194;28;45348;-74
2023/09/16 00:16:44;;;;;;;;;5.00;5.00;;;;;29.20;39.26;100973.78;5037076;28;45261;-75
2023/09/16 00:19:10;;;;;;;;;7.33;5.00;;;;;29.17;39.36;100961.66;5036805;28;46713;-74
2023/09/16 00:21:35;;;;;;;;;6.67;6.67;;;;;29.21;39.45;100973.53;5019196;28;45349;-74
2023/09/16 00:24:00;;;;;;;;;7.00;7.00;;;;;29.26;39.32;100972.84;5037074;28;45364;-74
2023/09/16 00:26:27;;;;;;;;;4.67;4.67;;;;;28.98;39.33;100921.47;5036655;28;45560;-74
2023/09/16 00:28:52;;;;;;;;;6.67;4.33;;;;;29.25;39.09;100957.84;5036795;28;46005;-75
2023/09/16 00:31:18;;;;;;;;;7.67;6.00;;;;;29.20;39.53;100947.78;5036792;28;45239;-74
2023/09/16 00:33:43;;;;;;;;;6.00;6.00;;;;;29.25;39.34;100965.88;5037048;28;45429;-74
2023/09/16 00:36:09;;;;;;;;;6.33;6.33;;;;;29.17;39.10;100943.69;5036810;28;45421;-74
2023/09/16 00:38:34;;;;;;;;;6.50;5.00;;;;;29.23;39.59;100962.59;5037014;28;45324;-74
2023/09/16 00:41:00;;;;;;;;;5.33;5.33;;;;;29.09;38.85;100951.22;5036392;28;45325;-74
2023/09/16 00:43:25;;;;;;;;;6.67;6.00;;;;;29.24;39.37;100956.19;5016542;28;45404;-75
2023/09/16 00:45:51;;;;;;;;;5.67;5.67;;;;;29.23;39.28;100951.88;5016749;28;45472;-74
2023/09/16 00:48:18;;;;;;;;;5.00;5.00;;;;;29.20;39.46;100944.31;5021176;28;46508;-75
2023/09/16 00:50:45;;;;;;;;;5.67;5.00;;;;;29.15;39.56;100943.09;5036518;28;45389;-74
2023/09/16 00:53:13;;;;;;;;;5.33;5.33;;;;;29.17;39.56;100938.34;5036647;28;45373;-74
2023/09/16 00:55:38;;;;;;;;;6.00;5.00;;;;;29.22;39.41;100948.41;5035896;28;45368;-74
2023/09/16 00:58:06;;;;;;;;;9.00;6.00;;;;;29.10;39.22;100934.13;5036211;28;45579;-74
2023/09/16 01:00:32;;;;;;;;;6.00;5.67;;;;;29.15;39.19;100939.59;5036356;28;45329;-74
2023/09/16 01:03:00;;;;;;;;;4.67;4.67;;;;;29.21;39.43;100949.44;5036099;28;45400;-74
2023/09/16 01:05:26;;;;;;;;;5.00;5.00;;;;;29.15;39.17;100936.94;5036483;28;45519;-74
2023/09/16 01:07:51;;;;;;;;;7.00;5.33;;;;;29.22;39.26;100947.56;5036239;28;45428;-74
2023/09/16 01:10:23;;;;;;;;;7.67;5.33;;;;;29.05;39.53;100922.19;5035882;28;45353;-74
2023/09/16 01:12:53;;;;;;;;;7.33;5.67;;;;;28.94;39.39;100899.66;5036330;28;45226;-74
2023/09/16 01:15:20;;;;;;;;;5.33;5.33;;;;;29.12;39.49;100929.38;5036347;28;45479;-75
2023/09/16 01:18:14;;;;;;;;;6.67;5.33;;;;;28.99;39.68;100916.94;5035943;28;47228;-75
2023/09/16 01:20:40;;;;;;;;;6.00;6.00;;;;;29.16;39.03;100941.25;5035934;28;45300;-74
2023/09/16 01:23:07;;;;;;;;;5.00;5.00;;;;;29.19;39.16;100943.47;5036214;28;45373;-74
2023/09/16 01:25:33;;;;;;;;;5.00;5.00;;;;;29.10;39.22;100926.06;5035816;28;45342;-75
2023/09/16 01:27:58;;;;;;;;;6.67;5.33;;;;;29.11;39.43;100925.03;5035946;28;45299;-74
2023/09/16 01:30:31;;;;;;;;;10.00;6.00;;;;;29.07;39.67;100925.47;5035984;28;45404;-74
2023/09/16 01:33:09;;;;;;;;;7.00;7.00;;;;;29.20;39.79;100942.44;5036208;28;45380;-74
2023/09/16 01:35:38;;;;;;;;;4.67;4.00;;;;;29.21;39.65;100935.22;5035850;28;45341;-75
2023/09/16 01:38:06;;;;;;;;;4.00;4.00;;;;;29.09;39.50;100911.91;5035667;28;47033;-75
2023/09/16 01:40:33;;;;;;;;;6.33;6.00;;;;;29.20;39.79;100931.72;5035392;28;45503;-74
2023/09/16 01:42:59;;;;;;;;;5.00;5.00;;;;;29.01;39.26;100904.13;5020176;28;45561;-73
2023/09/16 01:45:24;;;;;;;;;5.67;5.67;;;;;28.94;39.79;100894.31;5015850;28;45335;-75
2023/09/16 01:47:50;;;;;;;;;5.33;5.33;;;;;29.20;39.37;100929.03;5017037;28;46183;-75
2023/09/16 01:50:15;;;;;;;;;6.00;6.00;;;;;29.20;39.64;100931.72;5035627;28;45380;-74
2023/09/16 01:52:41;;;;;;;;;6.67;5.67;;;;;29.13;39.70;100923.78;5035759;28;45310;-74
2023/09/16 01:55:06;;;;;;;;;5.67;5.67;;;;;28.71;39.50;100857.53;5035480;28;45442;-74
2023/09/16 01:57:31;;;;;;;;;6.00;4.67;;;;;29.07;39.08;100925.47;5035489;28;45349;-74
2023/09/16 01:59:57;;;;;;;;;5.33;5.33;;;;;28.66;39.50;100855.56;5035446;28;45675;-73
2023/09/16 02:02:22;;;;;;;;;5.00;5.00;;;;;29.16;39.76;100936.72;5035665;28;45769;-75
2023/09/16 02:04:48;;;;;;;;;5.33;5.33;;;;;29.21;39.62;100945.94;5035575;28;45297;-75
2023/09/16 02:07:13;;;;;;;;;6.00;6.00;;;;;29.19;39.90;100946.16;5017536;28;46716;-75
2023/09/16 02:09:40;;;;;;;;;5.67;4.67;;;;;29.19;39.39;100946.16;5035220;28;45492;-74
2023/09/16 02:12:05;;;;;;;;;5.33;5.33;;;;;29.20;39.65;100947.00;5035676;28;45305;-74
2023/09/16 02:14:36;;;;;;;;;5.00;5.00;;;;;29.05;39.49;100922.19;5035848;28;45269;-74
2023/09/16 02:17:02;;;;;;;;;5.67;5.67;;;;;29.20;39.62;100941.63;5035206;28;47113;-75
2023/09/16 02:19:28;;;;;;;;;5.67;4.67;;;;;29.11;39.33;100930.41;5035203;28;45614;-74
2023/09/16 02:21:54;;;;;;;;;5.00;5.00;;;;;29.07;39.22;100930.81;5035026;28;47165;-75
2023/09/16 02:24:19;;;;;;;;;5.00;5.00;;;;;29.13;39.39;100933.66;5035371;28;45388;-76
2023/09/16 02:26:44;;;;;;;;;6.33;5.33;;;;;29.13;39.49;100939.84;5035066;28;46114;-76
2023/09/16 02:29:10;;;;;;;;;6.33;6.33;;;;;29.19;39.33;100946.16;5035303;28;45360;-75
2023/09/16 02:31:35;;;;;;;;;6.33;5.33;;;;;29.17;39.53;100940.22;5035344;28;45618;-74
2023/09/16 02:34:02;;;;;;;;;7.00;5.00;;;;;29.18;39.78;100936.47;5035386;28;45373;-73
2023/09/16 02:36:27;;;;;;;;;5.00;5.00;;;;;29.01;39.62;100909.50;5034801;28;46097;-75
2023/09/16 02:38:53;;;;;;;;;4.67;4.67;;;;;29.18;39.60;100939.16;5035124;28;45344;-75
2023/09/16 02:41:18;;;;;;;;;5.00;5.00;;;;;29.05;39.35;100916.84;5033175;28;45404;-72
2023/09/16 02:43:44;;;;;;;;;4.67;4.67;;;;;29.19;39.70;100946.16;5015269;28;45336;-75
2023/09/16 02:46:10;;;;;;;;;5.00;5.00;;;;;29.16;39.29;100936.72;5015039;28;46069;-75
2023/09/16 02:48:35;;;;;;;;;4.00;4.00;;;;;29.18;39.53;100933.81;5022500;28;45551;-75
2023/09/16 02:51:01;;;;;;;;;6.00;5.00;;;;;29.02;39.66;100911.94;5034623;28;45353;-75
2023/09/16 02:53:26;;;;;;;;;4.33;4.33;;;;;29.18;39.50;100931.94;5035127;28;45333;-76
2023/09/16 02:55:54;;;;;;;;;9.67;7.33;;;;;29.10;39.58;100921.53;5034626;28;45973;-73
2023/09/16 02:58:19;;;;;;;;;3.00;3.00;;;;;29.08;39.63;100904.84;5035048;28;45361;-75
2023/09/16 03:00:47;;;;;;;;;4.00;4.00;;;;;29.18;39.30;100929.28;5034793;28;45329;-75
2023/09/16 03:03:12;;;;;;;;;4.67;4.33;;;;;29.18;39.23;100923.91;5034818;28;45293;-74
2023/09/16 03:05:37;;;;;;;;;4.00;3.67;;;;;29.18;39.58;100917.72;5035637;28;46662;-72
2023/09/16 03:08:03;;;;;;;;;5.00;5.00;;;;;29.18;39.54;100921.22;5038169;28;45322;-72
2023/09/16 03:10:28;;;;;;;;;8.00;4.67;;;;;29.10;39.70;100902.78;5038336;28;45281;-75
2023/09/16 03:12:53;;;;;;;;;4.00;4.00;;;;;29.12;39.64;100903.38;5038190;28;45337;-75
2023/09/16 03:15:19;;;;;;;;;5.67;5.00;;;;;29.18;39.47;100907.00;5038045;28;45489;-76
2023/09/16 03:17:44;;;;;;;;;4.00;4.00;;;;;28.98;39.56;100875.94;5038164;28;45447;-75
2023/09/16 03:20:10;;;;;;;;;4.33;4.33;;;;;29.04;39.72;100896.44;5037782;28;45420;-75
2023/09/16 03:22:36;;;;;;;;;4.33;3.33;;;;;29.10;40.11;100900.13;5038250;28;45512;-76
2023/09/16 03:25:01;;;;;;;;;6.67;5.33;;;;;28.82;39.77;100851.44;5038045;28;45408;-75
2023/09/16 03:27:26;;;;;;;;;4.67;4.00;;;;;29.11;39.75;100891.03;5037828;28;45487;-75
2023/09/16 03:29:52;;;;;;;;;6.00;4.00;;;;;29.16;39.44;100907.25;5020069;28;45401;-76
2023/09/16 03:32:17;;;;;;;;;5.33;5.00;;;;;29.05;39.67;100878.53;5037914;28;45492;-75
2023/09/16 03:34:42;;;;;;;;;5.00;4.00;;;;;29.11;39.85;100887.53;5037221;28;46236;-76
2023/09/16 03:37:08;;;;;;;;;6.00;5.00;;;;;29.14;40.02;100895.97;5037827;28;45545;-75
2023/09/16 03:39:33;;;;;;;;;3.33;3.33;;;;;29.16;39.81;100901.06;5019980;28;45527;-75
2023/09/16 03:41:58;;;;;;;;;3.00;3.00;;;;;29.11;39.65;100887.53;5030120;28;45381;-75
2023/09/16 03:44:24;;;;;;;;;5.00;5.00;;;;;29.16;39.32;100903.75;5017578;28;47101;-75
2023/09/16 03:46:49;;;;;;;;;6.00;5.00;;;;;29.07;39.66;100881.78;5017691;28;45483;-75
2023/09/16 03:49:15;;;;;;;;;4.00;4.00;;;;;29.15;39.90;100891.38;5030176;28;45359;-75
2023/09/16 03:51:40;;;;;;;;;4.00;4.00;;;;;28.91;39.75;100861.84;5037813;28;45417;-75
2023/09/16 03:54:06;;;;;;;;;6.00;4.00;;;;;29.13;39.79;100896.16;5019481;28;46967;-75
2023/09/16 03:56:32;;;;;;;;;5.00;4.67;;;;;29.06;39.63;100891.69;5037392;28;45620;-75
2023/09/16 03:58:58;;;;;;;;;5.00;5.00;;;;;29.13;39.62;100888.13;5037555;28;45349;-75
2023/09/16 04:01:23;;;;;;;;;6.00;5.33;;;;;29.02;39.52;100870.94;5037351;28;45408;-75
2023/09/16 04:03:49;;;;;;;;;4.00;4.00;;;;;29.16;39.71;100890.34;5036816;28;46263;-75
2023/09/16 04:06:14;;;;;;;;;4.00;4.00;;;;;28.92;39.44;100856.25;5037214;28;45273;-75
2023/09/16 04:08:40;;;;;;;;;5.33;4.00;;;;;29.16;39.57;100893.03;5037428;28;45258;-74
2023/09/16 04:11:06;;;;;;;;;5.00;5.00;;;;;29.15;39.73;100886.84;5037342;28;45330;-74
2023/09/16 04:13:32;;;;;;;;;5.00;5.00;;;;;29.06;39.91;100872.13;5037070;28;46924;-74
2023/09/16 04:15:57;;;;;;;;;4.67;4.67;;;;;29.11;39.78;100882.19;5036866;28;45486;-74
2023/09/16 04:18:22;;;;;;;;;5.00;5.00;;;;;29.09;39.63;100882.44;5036069;28;45273;-74
2023/09/16 04:20:48;;;;;;;;;3.00;3.00;;;;;29.14;39.66;100887.91;5036963;28;45368;-74
2023/09/16 04:23:14;;;;;;;;;4.67;4.00;;;;;29.15;39.96;100878.00;5036983;28;47032;-74
2023/09/16 04:25:39;;;;;;;;;4.00;4.00;;;;;29.09;39.66;100873.53;5036989;28;45397;-75
2023/09/16 04:28:05;;;;;;;;;5.00;4.00;;;;;28.76;39.85;100830.91;5037022;28;45685;-76
2023/09/16 04:30:34;;;;;;;;;3.00;3.00;;;;;29.02;39.82;100870.94;5037025;28;45507;-75
2023/09/16 04:33:00;;;;;;;;;4.00;4.00;;;;;29.11;39.74;100877.66;5036422;28;45393;-76
2023/09/16 04:35:26;;;;;;;;;6.00;6.00;;;;;29.07;39.76;100865.72;5036754;28;45486;-76
2023/09/16 04:37:51;;;;;;;;;6.67;4.33;;;;;29.03;39.80;100867.22;5037177;28;45420;-75
2023/09/16 04:40:16;;;;;;;;;4.00;4.00;;;;;29.12;39.66;100871.22;5036653;28;45517;-73
2023/09/16 04:42:42;;;;;;;;;4.33;3.67;;;;;29.10;39.86;100884.03;5001938;28;46407;-76
2023/09/16 04:45:08;;;;;;;;;4.67;4.67;;;;;29.11;39.97;100879.50;4996780;28;45432;-75
2023/09/16 04:47:36;;;;;;;;;5.33;5.33;;;;;29.13;39.58;100888.94;4996625;28;45325;-73
2023/09/16 04:50:01;;;;;;;;;4.00;4.00;;;;;29.04;39.91;100877.69;5017323;28;45250;-74
2023/09/16 04:52:29;;;;;;;;;3.67;3.67;;;;;28.96;39.90;100859.28;5036146;28;45463;-75
2023/09/16 04:54:55;;;;;;;;;5.00;4.00;;;;;28.96;39.84;100856.63;5036441;28;45304;-75
2023/09/16 04:57:21;;;;;;;;;6.00;6.00;;;;;29.13;39.75;100877.41;5036609;28;45314;-72
2023/09/16 04:59:47;;;;;;;;;5.33;4.00;;;;;28.98;39.67;100851.03;5036611;28;45293;-75
2023/09/16 05:02:13;;;;;;;;;4.33;4.33;;;;;29.11;39.95;100868.78;5035788;28;45380;-75
2023/09/16 05:04:38;;;;;;;;;4.67;4.33;;;;;29.15;39.83;100869.97;5036187;28;45352;-74
2023/09/16 05:07:04;;;;;;;;;4.67;4.67;;;;;28.16;40.27;100712.91;5036549;28;45338;-76
2023/09/16 05:09:30;;;;;;;;;4.00;4.00;;;;;29.13;39.73;100864.03;5026151;28;45393;-74
2023/09/16 05:11:56;;;;;;;;;4.33;4.33;;;;;29.16;40.10;100874.28;5015862;28;45289;-76
2023/09/16 05:14:21;;;;;;;;;3.33;3.33;;;;;28.92;39.80;100842.84;5015804;28;45298;-75
2023/09/16 05:16:46;;;;;;;;;5.67;5.67;;;;;28.98;37.28;100864.41;5015813;28;45423;-76
2023/09/16 05:19:12;;;;;;;;;8.00;6.00;;;;;28.76;36.46;100871.06;5012173;28;45286;-75
2023/09/16 05:21:38;;;;;;;;;4.00;4.00;;;;;28.31;36.74;100837.44;4998771;28;45444;-77
2023/09/16 05:24:04;;;;;;;;;5.67;4.67;;;;;28.28;36.63;100876.97;4998548;28;45264;-74
2023/09/16 05:26:30;;;;;;;;;5.67;5.00;;;;;27.91;37.02;100861.69;5000139;28;45362;-74
2023/09/16 05:29:03;;;;;;;;;6.67;3.67;;;;;27.80;37.73;100886.47;5015285;28;45426;-74
2023/09/16 05:31:29;;;;;;;;;4.67;3.00;;;;;27.59;37.87;100883.94;5014103;28;45325;-79
2023/09/16 05:33:54;;;;;;;;;3.67;2.67;;;;;27.57;38.39;100880.66;4997761;28;45398;-79
2023/09/16 05:36:23;;;;;;;;;4.33;4.33;;;;;27.60;38.52;100884.75;5016199;28;45517;-78
2023/09/16 05:38:49;;;;;;;;;4.00;4.00;;;;;27.72;38.28;100879.50;5015941;28;45368;-78
2023/09/16 05:41:14;;;;;;;;;4.00;4.00;;;;;27.68;38.54;100873.78;4997844;28;47028;-78
2023/09/16 05:43:40;;;;;;;;;4.33;3.67;;;;;27.82;38.75;100879.03;5016026;28;45330;-77
2023/09/16 05:46:06;;;;;;;;;3.00;3.00;;;;;27.99;39.11;100895.34;5015805;28;45425;-78
2023/09/16 05:48:31;;;;;;;;;4.33;3.33;;;;;28.06;38.51;100895.28;5022887;28;45317;-78
2023/09/16 05:50:58;;;;;;;;;3.67;3.00;;;;;28.10;38.76;100893.00;5035638;28;45797;-78
2023/09/16 05:53:24;;;;;;;;;5.00;5.00;;;;;28.14;38.68;100892.31;5035773;28;45356;-78
2023/09/16 05:55:50;;;;;;;;;5.00;5.00;;;;;28.24;38.90;100904.38;5035945;28;45289;-78
2023/09/16 05:58:15;;;;;;;;;3.67;3.67;;;;;28.29;38.42;100907.19;5035720;28;45567;-78
2023/09/16 06:00:40;;;;;;;;;4.00;4.00;;;;;28.33;38.51;100907.56;5035031;28;50189;-78
2023/09/16 06:03:06;;;;;;;;;6.00;4.67;;;;;28.39;38.51;100909.38;5035503;28;45395;-77
2023/09/16 06:05:33;;;;;;;;;3.00;3.00;;;;;28.27;38.77;100887.88;5035784;28;45336;-78
2023/09/16 06:07:58;;;;;;;;;4.33;4.33;;;;;28.45;38.56;100902.31;5035694;28;45393;-79
2023/09/16 06:10:23;;;;;;;;;4.00;4.00;;;;;28.42;38.86;100894.75;5034822;28;46288;-79
2023/09/16 06:12:50;;;;;;;;;6.00;4.00;;;;;28.48;38.70;100899.22;5035690;28;45334;-78
2023/09/16 06:15:15;;;;;;;;;4.67;3.67;;;;;28.47;38.75;100884.22;5035308;28;45440;-79
2023/09/16 06:17:40;;;;;;;;;3.00;3.00;;;;;28.60;38.71;100899.25;5035586;28;45346;-79
2023/09/16 06:20:06;;;;;;;;;4.00;4.00;;;;;28.62;38.54;100905.25;5035352;28;45329;-79
2023/09/16 06:22:32;;;;;;;;;3.00;3.00;;;;;28.60;38.54;100891.25;5035576;28;45463;-79
2023/09/16 06:24:57;;;;;;;;;3.67;3.00;;;;;28.68;38.89;100901.66;5035489;28;45777;-78
2023/09/16 06:27:22;;;;;;;;;3.67;3.67;;;;;28.58;38.52;100887.97;5035449;28;45438;-79
2023/09/16 06:29:48;;;;;;;;;5.33;4.00;;;;;28.48;38.77;100870.59;5016951;28;46001;-78
2023/09/16 06:32:14;;;;;;;;;5.00;3.00;;;;;28.67;38.85;100894.69;5035256;28;45285;-79
2023/09/16 06:34:39;;;;;;;;;4.33;4.00;;;;;28.73;38.66;100890.25;5035230;28;45304;-79
2023/09/16 06:37:05;;;;;;;;;4.00;4.00;;;;;28.66;38.48;100879.66;5035396;28;45360;-79
2023/09/16 06:39:32;;;;;;;;;3.00;3.00;;;;;28.79;38.56;100894.72;5034537;28;45479;-78
2023/09/16 06:41:57;;;;;;;;;3.67;3.33;;;;;28.83;38.47;100905.81;5031054;28;45480;-78
2023/09/16 06:44:22;;;;;;;;;5.00;5.00;;;;;28.84;38.81;100902.06;5018623;28;45338;-78
2023/09/16 06:46:48;;;;;;;;;4.33;4.33;;;;;28.86;38.62;100897.31;5018886;28;45360;-80
2023/09/16 06:49:13;;;;;;;;;4.67;3.33;;;;;28.87;39.00;100890.91;5031293;28;46056;-78
2023/09/16 06:51:38;;;;;;;;;3.67;3.67;;;;;28.89;38.96;100888.00;5038569;28;45309;-78
2023/09/16 06:54:04;;;;;;;;;6.00;5.00;;;;;28.90;38.60;100890.47;5038475;28;45357;-79
2023/09/16 06:56:29;;;;;;;;;2.67;2.67;;;;;28.92;38.90;100888.38;5039082;28;45424;-78
2023/09/16 06:58:56;;;;;;;;;4.00;4.00;;;;;28.92;39.01;100893.72;5038335;28;47181;-79
2023/09/16 07:01:22;;;;;;;;;5.33;4.33;;;;;28.95;39.14;100892.47;5020813;28;45349;-78
2023/09/16 07:03:48;;;;;;;;;5.00;4.00;;;;;28.83;38.77;100879.84;5038373;28;45392;-79
2023/09/16 07:06:13;;;;;;;;;5.33;5.33;;;;;28.97;39.02;100895.72;5039088;28;45269;-79
2023/09/16 07:08:38;;;;;;;;;2.33;2.33;;;;;28.97;39.32;100895.72;5037529;28;45319;-79
2023/09/16 07:11:04;;;;;;;;;3.33;3.00;;;;;28.91;39.38;100884.06;5038372;28;45356;-78
2023/09/16 07:13:29;;;;;;;;;5.67;4.67;;;;;29.01;39.17;100888.88;5038132;28;45313;-79
2023/09/16 07:15:55;;;;;;;;;5.00;5.00;;;;;29.02;38.64;100893.19;5038401;28;45422;-77
2023/09/16 07:18:20;;;;;;;;;4.00;4.00;;;;;28.99;39.13;100887.47;5038207;28;46032;-78
2023/09/16 07:20:46;;;;;;;;;4.67;4.67;;;;;28.85;39.14;100869.72;5037928;28;45437;-79
2023/09/16 07:23:11;;;;;;;;;1.67;1.67;;;;;29.05;39.53;100900.78;5037523;28;45454;-79
2023/09/16 07:25:36;;;;;;;;;4.67;4.67;;;;;29.06;38.82;100901.59;5038071;28;45469;-77
2023/09/16 07:28:07;;;;;;;;;4.00;4.00;;;;;29.08;39.15;100902.19;5037617;28;46109;-78
2023/09/16 07:30:33;;;;;;;;;3.33;3.33;;;;;29.09;38.87;100894.97;5038073;28;45384;-78
2023/09/16 07:32:58;;;;;;;;;7.00;4.00;;;;;28.95;39.34;100879.91;5038375;28;45220;-78
2023/09/16 07:35:24;;;;;;;;;5.00;5.00;;;;;29.11;39.33;100906.28;5020324;28;45478;-79
2023/09/16 07:37:51;;;;;;;;;4.00;4.00;;;;;29.12;39.21;100908.72;5037770;28;48611;-79
2023/09/16 07:40:16;;;;;;;;;5.00;4.00;;;;;29.13;39.68;100909.56;5037779;28;45399;-78
2023/09/16 07:42:41;;;;;;;;;5.33;5.33;;;;;29.13;39.36;100915.75;5026161;28;45471;-78
2023/09/16 07:45:07;;;;;;;;;4.00;4.00;;;;;29.11;39.48;100908.97;5018159;28;45394;-79
2023/09/16 07:47:33;;;;;;;;;6.00;4.33;;;;;29.07;39.27;100901.34;5018086;28;45381;-79
2023/09/16 07:49:58;;;;;;;;;4.00;4.00;;;;;29.09;39.62;100909.22;5036641;28;47552;-78
2023/09/16 07:52:23;;;;;;;;;3.00;3.00;;;;;29.18;39.51;100926.59;5037944;28;45257;-78
2023/09/16 07:54:49;;;;;;;;;3.67;3.00;;;;;29.18;39.50;100925.75;5038064;28;45463;-79
2023/09/16 07:57:14;;;;;;;;;3.00;3.00;;;;;29.20;39.43;100930.91;5037262;28;47310;-79
2023/09/16 07:59:40;;;;;;;;;5.33;3.67;;;;;29.17;39.89;100913.44;5037822;28;45313;-79
2023/09/16 08:02:05;;;;;;;;;4.00;4.00;;;;;29.20;39.44;100922.88;5039422;28;45321;-77
2023/09/16 08:04:31;;;;;;;;;4.00;4.00;;;;;29.23;39.21;100925.06;5040431;28;45317;-79
2023/09/16 08:06:57;;;;;;;;;3.67;3.00;;;;;29.02;39.38;100887.81;5038050;28;47435;-80
2023/09/16 08:09:22;;;;;;;;;3.00;3.00;;;;;29.24;39.49;100921.38;5039418;28;45258;-80
2023/09/16 08:11:48;;;;;;;;;5.00;5.00;;;;;29.25;39.38;100929.16;5037802;28;45450;-78
2023/09/16 08:14:14;;;;;;;;;5.00;5.00;;;;;29.14;39.76;100905.84;5037747;28;45305;-79
2023/09/16 08:16:39;;;;;;;;;4.00;4.00;;;;;29.23;39.86;100917.03;5038305;28;46109;-78
2023/09/16 08:19:04;;;;;;;;;2.67;2.67;;;;;29.10;39.56;100902.78;5039660;28;45438;-79
2023/09/16 08:21:30;;;;;;;;;5.00;4.00;;;;;29.28;39.68;100923.34;5040563;28;45324;-78
2023/09/16 08:23:55;;;;;;;;;4.67;4.67;;;;;29.29;39.79;100921.50;5044225;28;45477;-79
2023/09/16 08:26:20;;;;;;;;;4.33;3.67;;;;;29.26;39.61;100919.28;5042796;28;50294;-78
2023/09/16 08:28:45;;;;;;;;;3.00;3.00;;;;;29.23;39.76;100925.06;5042414;28;45525;-78
2023/09/16 08:31:11;;;;;;;;;4.00;4.00;;;;;29.29;40.03;100924.19;5042267;28;44973;-78
2023/09/16 08:33:36;;;;;;;;;2.67;2.67;;;;;29.30;39.83;100920.47;5019629;28;45603;-78
2023/09/16 08:36:01;;;;;;;;;3.33;3.00;;;;;29.21;39.90;100917.28;5036351;28;45463;-79
2023/09/16 08:38:27;;;;;;;;;3.67;3.00;;;;;29.32;39.84;100933.63;5036144;28;45419;-78
2023/09/16 08:41:04;;;;;;;;;4.33;4.33;;;;;29.29;40.10;100929.53;5037105;28;45553;-77
2023/09/16 08:43:37;;;;;;;;;3.00;3.00;;;;;29.36;39.69;100940.16;5018136;28;45302;-79
2023/09/16 08:46:08;;;;;;;;;3.00;3.00;;;;;29.26;39.87;100930.81;4999040;28;46422;-78
2023/09/16 08:48:34;;;;;;;;;5.00;5.00;;;;;29.37;39.85;100941.78;5024997;28;45364;-78
2023/09/16 08:51:04;;;;;;;;;4.00;4.00;;;;;29.36;39.96;100937.47;5040470;28;45380;-78
2023/09/16 08:53:33;;;;;;;;;2.33;2.00;;;;;29.38;39.89;100940.75;5039788;28;45535;-78
2023/09/16 08:55:59;;;;;;;;;3.33;3.33;;;;;29.37;39.60;100936.44;5036972;28;46373;-78
2023/09/16 08:58:25;;;;;;;;;3.00;3.00;;;;;29.33;40.05;100924.56;5038100;28;45406;-78
2023/09/16 09:00:50;;;;;;;;;5.67;4.00;;;;;29.31;40.09;100921.25;5037544;28;45429;-78
2023/09/16 09:03:16;;;;;;;;;4.00;4.00;;;;;29.24;40.09;100902.63;5023804;28;45410;-79
2023/09/16 09:05:44;;;;;;;;;4.00;4.00;;;;;29.35;40.00;100917.91;5035207;28;46254;-79
2023/09/16 09:08:11;;;;;;;;;4.00;4.00;;;;;29.39;39.73;100927.13;5036298;28;45407;-79
2023/09/16 09:10:40;;;;;;;;;2.00;2.00;;;;;29.39;40.01;100919.09;5036556;28;45468;-78
2023/09/16 09:13:13;;;;;;;;;3.00;3.00;;;;;29.43;40.12;100922.13;5035287;28;45562;-78
2023/09/16 09:15:50;;;;;;;;;3.00;3.00;;;;;29.43;40.06;100916.78;5036260;28;45505;-79
2023/09/16 09:18:17;;;;;;;;;4.00;3.00;;;;;29.43;39.96;100922.13;5036603;28;45317;-78
2023/09/16 09:20:42;;;;;;;;;4.33;3.00;;;;;29.45;39.98;100924.56;5052049;28;45302;-77
2023/09/16 09:23:08;;;;;;;;;5.33;5.33;;;;;29.40;40.22;100918.03;5035835;28;45489;-77
2023/09/16 09:25:41;;;;;;;;;2.67;2.67;;;;;29.46;39.84;100918.97;5036073;28;46259;-78
2023/09/16 09:28:06;;;;;;;;;3.00;3.00;;;;;29.42;39.94;100915.13;5035769;28;45417;-79
2023/09/16 09:30:32;;;;;;;;;3.00;3.00;;;;;29.29;40.38;100894.69;5036310;28;45458;-78
2023/09/16 09:32:58;;;;;;;;;3.67;3.67;;;;;29.49;40.21;100918.50;5035603;28;45636;-77
2023/09/16 09:35:25;;;;;;;;;3.00;3.00;;;;;29.42;40.08;100899.03;5034653;28;47507;-78
2023/09/16 09:37:52;;;;;;;;;3.00;3.00;;;;;29.49;39.99;100912.34;5035977;28;45296;-78
2023/09/16 09:40:19;;;;;;;;;3.00;3.00;;;;;29.50;39.98;100916.66;5036132;28;45391;-77
2023/09/16 09:42:47;;;;;;;;;4.00;4.00;;;;;29.49;39.99;100915.00;5034753;28;45518;-78
2023/09/16 09:45:15;;;;;;;;;5.00;3.00;;;;;29.49;40.35;100915.84;5068183;28;45583;-78
2023/09/16 09:47:41;;;;;;;;;5.00;3.67;;;;;29.50;40.13;100924.69;5036509;28;45324;-79
2023/09/16 09:50:11;;;;;;;;;3.00;3.00;;;;;29.50;40.25;100912.13;5035834;28;45294;-78
2023/09/16 09:52:36;;;;;;;;;4.00;4.00;;;;;29.51;40.38;100926.31;5036782;28;45508;-78
2023/09/16 09:55:03;;;;;;;;;3.50;3.00;;;;;29.50;40.26;100925.53;5036502;28;45451;-79
2023/09/16 09:57:28;;;;;;;;;4.33;4.33;;;;;29.38;40.17;100906.72;5035976;28;45388;-79
2023/09/16 09:59:57;;;;;;;;;3.33;3.33;;;;;29.51;40.27;100905.69;5035875;28;45491;-78
2023/09/16 10:02:27;;;;;;;;;3.33;3.33;;;;;29.50;40.37;100928.19;5035587;28;45634;-78
2023/09/16 10:05:01;;;;;;;;;3.00;3.00;;;;;29.52;40.25;100915.38;5035432;28;46286;-78
2023/09/16 10:07:28;;;;;;;;;3.33;3.00;;;;;29.52;40.19;100925.28;5035092;28;45416;-78
2023/09/16 10:09:53;;;;;;;;;5.00;4.00;;;;;29.45;40.38;100911.16;5035531;28;45432;-78
2023/09/16 10:12:20;;;;;;;;;3.00;3.00;;;;;29.40;40.74;100893.09;5035725;28;45376;-79
2023/09/16 10:14:47;;;;;;;;;5.00;5.00;;;;;29.52;40.27;100914.56;5035878;28;45514;-78
2023/09/16 10:17:12;;;;;;;;;4.00;3.00;;;;;29.27;40.58;100864.66;5039513;28;45349;-77
2023/09/16 10:19:38;;;;;;;;;3.00;3.00;;;;;29.54;40.30;100911.63;5039432;28;45366;-79
2023/09/16 10:22:03;;;;;;;;;3.00;3.00;;;;;29.45;40.46;100898.59;5038791;28;45293;-77
2023/09/16 10:24:29;;;;;;;;;3.00;3.00;;;;;29.41;40.29;100892.03;5038984;28;46128;-77
2023/09/16 10:27:01;;;;;;;;;3.67;2.67;;;;;29.40;40.28;100883.22;5038978;28;45378;-78
2023/09/16 10:29:29;;;;;;;;;5.00;4.00;;;;;29.42;40.21;100898.22;5039143;28;45164;-78
2023/09/16 10:31:55;;;;;;;;;3.00;3.00;;;;;29.48;40.24;100918.75;5039161;28;45376;-78
2023/09/16 10:34:21;;;;;;;;;6.00;3.33;;;;;29.57;40.52;100924.59;5038032;28;46474;-78
2023/09/16 10:36:48;;;;;;;;;4.00;3.00;;;;;29.54;40.35;100907.09;5037881;28;45431;-78
2023/09/16 10:39:17;;;;;;;;;4.00;4.00;;;;;29.56;40.13;100914.94;5039166;28;45381;-78
2023/09/16 10:41:44;;;;;;;;;4.67;4.67;;;;;29.38;40.39;100889.84;5038622;28;45404;-78
2023/09/16 10:44:12;;;;;;;;;4.33;4.33;;;;;29.54;40.38;100912.47;5038438;28;46374;-78
2023/09/16 10:46:38;;;;;;;;;6.00;4.00;;;;;29.57;40.61;100905.81;5038564;28;45310;-79
2023/09/16 10:49:04;;;;;;;;;4.00;2.00;;;;;29.49;40.50;100898.94;5037140;28;45436;-79
2023/09/16 10:51:39;;;;;;;;;3.67;3.67;;;;;29.55;40.54;100908.75;5053658;28;45522;-78
2023/09/16 10:54:41;;;;;;;;;4.00;4.00;;;;;29.52;40.68;100909.19;5038401;28;47075;-78
2023/09/16 10:57:16;;;;;;;;;3.00;3.00;;;;;29.56;40.40;100904.19;5038390;28;45501;-79
2023/09/16 10:59:44;;;;;;;;;3.00;3.00;;;;;29.48;40.47;100902.69;5037394;28;45379;-78
2023/09/16 11:02:37;;;;;;;;;3.33;3.33;;;;;29.50;40.39;100897.91;5038055;28;45413;-77
2023/09/16 11:05:03;;;;;;;;;3.00;3.00;;;;;29.48;40.31;100883.91;5037051;28;46698;-78
2023/09/16 11:07:30;;;;;;;;;5.33;5.00;;;;;29.54;40.32;100892.88;5037359;28;45450;-78
2023/09/16 11:09:58;;;;;;;;;4.67;3.00;;;;;29.56;40.38;100891.59;5020431;28;45370;-78
2023/09/16 11:12:25;;;;;;;;;4.00;4.00;;;;;29.53;40.57;100884.03;5020365;28;45523;-78
2023/09/16 11:14:50;;;;;;;;;3.33;3.33;;;;;29.48;40.41;100871.34;5037123;28;45665;-78
2023/09/16 11:17:16;;;;;;;;;3.33;3.33;;;;;29.56;40.65;100882.75;5037425;28;45588;-78
2023/09/16 11:19:42;;;;;;;;;4.00;4.00;;;;;29.54;40.39;100887.50;5038006;28;45363;-78
2023/09/16 11:22:08;;;;;;;;;2.33;2.33;;;;;29.56;40.29;100888.91;5038184;28;45348;-78